createdAt,value
2022-12-04T05:17:10.912Z,7.75
2022-12-04T05:19:54.862Z,7.28
2022-12-04T05:22:25.458Z,7.15
2022-12-04T05:24:52.187Z,6.63
2022-12-04T05:27:18.984Z,8.30
2022-12-04T05:29:45.545Z,8.20
2022-12-04T05:32:12.054Z,8.80
2022-12-04T05:34:38.617Z,7.18
2022-12-04T05:37:05.376Z,8.60
2022-12-04T05:39:31.815Z,7.35
2022-12-04T05:41:58.288Z,7.40
2022-12-04T05:44:24.932Z,7.72
2022-12-04T05:46:51.486Z,8.00
2022-12-04T05:49:17.977Z,7.13
2022-12-04T05:51:44.531Z,6.97
2022-12-04T05:54:10.997Z,7.00
2022-12-04T05:56:37.429Z,7.20
2022-12-04T05:59:03.889Z,7.18
2022-12-04T06:01:30.369Z,8.02
2022-12-04T06:03:56.935Z,8.70
2022-12-04T06:06:25.029Z,7.65
2022-12-04T06:08:53.688Z,7.60
2022-12-04T06:11:25.372Z,7.70
2022-12-04T06:13:52.507Z,5.93
2022-12-04T06:16:22.134Z,7.07
2022-12-04T06:18:50.789Z,7.95
2022-12-04T06:21:18.309Z,7.07
2022-12-04T06:23:45.032Z,6.95
2022-12-04T06:26:11.502Z,7.05
2022-12-04T06:28:37.980Z,7.88
2022-12-04T06:31:07.242Z,6.88
2022-12-04T06:33:35.041Z,6.97
2022-12-04T06:36:03.981Z,6.85
2022-12-04T06:38:31.014Z,7.63
2022-12-04T06:40:57.579Z,6.97
2022-12-04T06:43:24.344Z,6.93
2022-12-04T06:46:05.640Z,7.63
2022-12-04T06:48:33.021Z,6.85
2022-12-04T06:51:11.366Z,7.80
2022-12-04T06:53:38.269Z,7.72
2022-12-04T06:56:08.374Z,7.05
2022-12-04T06:58:35.693Z,7.00
2022-12-04T07:01:10.976Z,7.00
2022-12-04T07:03:38.101Z,7.68
2022-12-04T07:06:19.896Z,6.97
2022-12-04T07:08:48.785Z,7.22
2022-12-04T07:11:15.797Z,7.60
2022-12-04T07:13:43.015Z,6.80
2022-12-04T07:16:12.742Z,7.05
2022-12-04T07:18:39.669Z,7.28
2022-12-04T07:21:08.247Z,6.45
2022-12-04T07:23:35.817Z,7.78
2022-12-04T07:26:07.990Z,8.90
2022-12-04T07:28:35.921Z,6.95
2022-12-04T07:31:10.583Z,6.43
2022-12-04T07:33:38.144Z,6.32
2022-12-04T07:36:07.131Z,6.38
2022-12-04T07:38:37.680Z,7.15
2022-12-04T07:41:06.306Z,6.13
2022-12-04T07:43:33.817Z,6.82
2022-12-04T07:46:05.850Z,5.57
2022-12-04T07:48:33.610Z,7.10
2022-12-04T07:51:09.204Z,6.25
2022-12-04T07:53:36.182Z,6.47
2022-12-04T07:56:04.437Z,6.88
2022-12-04T07:58:33.377Z,6.07
2022-12-04T08:01:07.265Z,6.72
2022-12-04T08:03:33.813Z,6.15
2022-12-04T08:06:01.661Z,5.78
2022-12-04T08:08:28.319Z,5.93
2022-12-04T08:10:55.271Z,5.93
2022-12-04T08:13:21.726Z,5.90
2022-12-04T08:15:50.909Z,5.53
2022-12-04T08:18:17.992Z,5.82
2022-12-04T08:20:47.461Z,5.35
2022-12-04T08:23:16.091Z,5.47
2022-12-04T08:25:42.645Z,5.50
2022-12-04T08:28:09.231Z,6.93
2022-12-04T08:30:36.010Z,6.30
2022-12-04T08:33:03.041Z,6.30
2022-12-04T08:35:30.070Z,5.40
2022-12-04T08:37:56.529Z,6.03
2022-12-04T08:40:23.365Z,5.88
2022-12-04T08:42:49.858Z,6.15
2022-12-04T08:45:16.460Z,6.55
2022-12-04T08:47:45.788Z,5.82
2022-12-04T08:50:14.544Z,5.45
2022-12-04T08:52:41.220Z,5.63
2022-12-04T08:55:08.226Z,6.05
2022-12-04T08:57:34.722Z,6.88
2022-12-04T09:00:01.658Z,6.47
2022-12-04T09:02:28.093Z,5.45
2022-12-04T09:04:54.645Z,7.15
2022-12-04T09:07:26.152Z,6.90
2022-12-04T09:10:49.445Z,6.68
2022-12-04T09:13:19.706Z,6.18
2022-12-04T09:15:46.353Z,7.75
2022-12-04T09:23:05.202Z,6.47
2022-12-04T09:25:36.644Z,6.95
2022-12-04T09:28:04.288Z,7.90
2022-12-04T09:30:30.968Z,6.18
2022-12-04T09:32:57.549Z,7.68
2022-12-04T09:35:24.286Z,7.05
2022-12-04T09:37:50.847Z,7.68
2022-12-04T09:40:37.936Z,7.63
2022-12-04T09:43:19.828Z,8.23
2022-12-04T09:45:52.010Z,6.65
2022-12-04T09:48:21.956Z,7.47
2022-12-04T09:50:49.522Z,7.10
2022-12-04T09:53:20.893Z,6.50
2022-12-04T09:56:05.912Z,7.63
2022-12-04T09:58:51.254Z,6.95
2022-12-04T10:01:46.887Z,6.50
2022-12-04T10:04:18.287Z,6.93
2022-12-04T10:07:02.197Z,6.85
2022-12-04T10:09:57.463Z,6.55
2022-12-04T10:12:47.498Z,7.18
2022-12-04T10:15:47.540Z,7.38
2022-12-04T10:19:00.055Z,7.80
2022-12-04T10:21:51.642Z,7.28
2022-12-04T10:24:30.843Z,8.43
2022-12-04T10:27:19.539Z,8.13
2022-12-04T10:29:53.921Z,7.15
2022-12-04T10:32:25.263Z,7.50
2022-12-04T10:34:55.345Z,7.70
2022-12-04T10:37:22.843Z,6.50
2022-12-04T10:39:52.281Z,7.15
2022-12-04T10:42:32.609Z,8.20
2022-12-04T10:45:26.690Z,7.50
2022-12-04T10:47:53.717Z,8.40
2022-12-04T10:50:56.116Z,7.97
2022-12-04T10:53:32.754Z,7.70
2022-12-04T10:56:18.050Z,7.67
2022-12-04T10:59:10.663Z,6.63
2022-12-04T11:01:39.593Z,7.05
2022-12-04T11:04:22.363Z,6.35
2022-12-04T11:07:01.204Z,7.05
2022-12-04T11:09:34.145Z,7.78
2022-12-04T11:12:20.060Z,7.67
2022-12-04T11:15:12.653Z,7.05
2022-12-04T11:17:42.438Z,7.40
2022-12-04T11:20:17.476Z,8.35
2022-12-04T11:22:58.948Z,7.97
2022-12-04T11:25:30.972Z,6.82
2022-12-04T11:28:01.185Z,6.43
2022-12-04T11:30:37.318Z,7.45
2022-12-04T11:34:01.494Z,7.22
2022-12-04T11:36:44.011Z,6.63
2022-12-04T11:39:30.519Z,6.72
2022-12-04T11:42:14.590Z,6.55
2022-12-04T11:45:01.607Z,7.43
2022-12-04T11:47:33.165Z,6.40
2022-12-04T11:50:35.094Z,6.30
2022-12-04T11:53:36.364Z,7.20
2022-12-04T11:56:40.493Z,6.38
2022-12-04T11:59:13.732Z,7.30
2022-12-04T12:01:59.193Z,7.03
2022-12-04T12:04:48.027Z,6.10
2022-12-04T12:07:36.917Z,6.30
2022-12-04T12:10:11.293Z,6.07
2022-12-04T12:13:04.963Z,6.68
2022-12-04T12:16:00.636Z,6.15
2022-12-04T12:19:18.530Z,6.30
2022-12-04T12:22:05.562Z,5.28
2022-12-04T12:24:51.289Z,4.68
2022-12-04T12:27:50.522Z,5.90
2022-12-04T12:30:26.259Z,6.45
2022-12-04T12:32:56.057Z,6.55
2022-12-04T12:35:47.139Z,5.97
2022-12-04T12:38:26.189Z,6.38
2022-12-04T12:41:01.614Z,5.95
2022-12-04T12:43:37.578Z,6.38
2022-12-04T12:46:16.958Z,5.95
2022-12-04T12:49:10.994Z,6.35
2022-12-04T12:52:01.592Z,7.13
2022-12-04T12:54:36.953Z,6.40
2022-12-04T12:57:20.794Z,7.05
2022-12-04T12:59:57.320Z,7.10
2022-12-04T13:02:41.109Z,6.65
2022-12-04T13:05:12.325Z,7.65
2022-12-04T13:07:55.751Z,6.05
2022-12-04T13:10:44.365Z,6.57
2022-12-04T13:13:29.619Z,5.82
2022-12-04T13:16:14.182Z,6.20
2022-12-04T13:18:59.154Z,6.03
2022-12-04T13:21:37.617Z,6.25
2022-12-04T13:24:19.661Z,7.70
2022-12-04T13:27:06.044Z,6.50
2022-12-04T13:29:54.873Z,6.22
2022-12-04T13:32:54.235Z,5.70
2022-12-04T13:35:51.952Z,5.82
2022-12-04T13:38:46.171Z,6.30
2022-12-04T13:41:19.855Z,7.35
2022-12-04T13:43:49.634Z,6.07
2022-12-04T13:46:36.854Z,5.60
2022-12-04T13:49:13.627Z,6.70
2022-12-04T13:51:42.915Z,5.95
2022-12-04T13:54:13.360Z,5.97
2022-12-04T13:56:46.415Z,6.78
2022-12-04T13:59:22.335Z,6.05
2022-12-04T14:02:08.085Z,7.43
2022-12-04T14:05:12.241Z,7.43
2022-12-04T14:07:43.253Z,7.32
2022-12-04T14:10:16.005Z,6.30
2022-12-04T14:13:00.583Z,6.63
2022-12-04T14:15:35.596Z,6.40
2022-12-04T14:21:57.884Z,6.70
2022-12-04T14:24:44.484Z,7.20
2022-12-04T14:27:42.095Z,7.32
2022-12-04T14:30:37.970Z,7.90
2022-12-04T14:33:25.948Z,6.65
2022-12-04T14:36:01.775Z,8.90
2022-12-04T14:38:28.660Z,7.07
2022-12-04T14:40:58.010Z,9.10
2022-12-04T14:43:27.963Z,7.68
2022-12-04T14:46:10.138Z,6.35
2022-12-04T14:48:56.615Z,7.50
2022-12-04T14:52:01.884Z,7.30
2022-12-04T14:54:34.605Z,7.35
2022-12-04T14:57:36.975Z,7.53
2022-12-04T15:00:05.608Z,7.72
2022-12-04T15:02:40.658Z,7.30
2022-12-04T15:05:29.209Z,7.93
2022-12-04T15:08:02.172Z,8.13
2022-12-04T15:10:49.782Z,6.80
2022-12-04T15:13:31.285Z,7.18
2022-12-04T15:15:58.773Z,7.65
2022-12-04T15:18:33.208Z,7.22
2022-12-04T15:21:04.677Z,8.15
2022-12-04T15:23:40.397Z,7.80
2022-12-04T15:26:14.474Z,7.50
2022-12-04T15:29:03.067Z,7.35
2022-12-04T15:31:43.448Z,9.23
2022-12-04T15:34:17.132Z,7.70
2022-12-04T15:36:49.740Z,7.95
2022-12-04T15:39:26.560Z,9.07
2022-12-04T15:42:06.656Z,9.57
2022-12-04T15:44:38.083Z,8.85
2022-12-04T15:47:17.811Z,8.95
2022-12-04T15:50:23.686Z,9.57
2022-12-04T15:53:11.179Z,9.70
2022-12-04T15:55:51.688Z,8.27
2022-12-04T15:58:22.806Z,10.00
2022-12-04T16:00:58.127Z,10.00
2022-12-04T16:03:32.449Z,9.93
2022-12-04T16:06:28.195Z,8.93
2022-12-04T16:08:59.317Z,10.00
2022-12-04T16:11:36.043Z,9.45
2022-12-04T16:14:18.627Z,8.75
2022-12-04T16:16:54.879Z,9.15
2022-12-04T16:19:32.583Z,10.05
2022-12-04T16:31:33.321Z,9.52
2022-12-04T16:34:01.741Z,9.02
2022-12-04T16:36:29.032Z,10.05
2022-12-04T16:38:56.170Z,9.00
2022-12-04T16:41:23.183Z,8.30
2022-12-04T16:44:07.801Z,9.80
2022-12-04T16:49:38.493Z,8.77
2022-12-04T16:52:37.180Z,8.32
2022-12-04T17:02:11.806Z,8.30
2022-12-04T17:05:00.344Z,8.77
2022-12-04T17:07:50.469Z,8.82
2022-12-04T17:10:30.499Z,8.55
2022-12-04T17:13:08.816Z,8.70
2022-12-04T17:15:36.778Z,10.18
2022-12-04T17:18:09.394Z,9.45
2022-12-04T17:20:42.592Z,10.18
2022-12-04T17:23:10.871Z,9.57
2022-12-04T17:25:38.471Z,9.40
2022-12-04T17:28:14.252Z,8.18
2022-12-04T17:30:56.009Z,9.15
2022-12-04T17:33:26.017Z,9.48
2022-12-04T17:36:02.142Z,10.43
2022-12-04T17:46:59.454Z,9.48
2022-12-04T17:49:34.719Z,9.48
2022-12-04T17:52:01.782Z,9.15
2022-12-04T17:54:28.885Z,9.85
2022-12-04T17:56:58.020Z,10.18
2022-12-04T17:59:24.771Z,8.65
2022-12-04T18:01:51.341Z,8.93
2022-12-04T18:04:19.287Z,9.68
2022-12-04T18:06:46.577Z,9.35
2022-12-04T18:09:15.820Z,9.48
2022-12-04T18:11:45.115Z,9.65
2022-12-04T18:14:15.185Z,9.15
2022-12-04T18:16:44.892Z,8.98
2022-12-04T18:19:12.340Z,9.73
2022-12-04T18:21:38.784Z,8.85
2022-12-04T18:24:06.114Z,9.15
2022-12-04T18:26:38.930Z,9.65
2022-12-04T18:29:06.066Z,8.85
2022-12-04T18:31:33.723Z,8.77
2022-12-04T18:34:00.798Z,9.23
2022-12-04T18:36:32.236Z,10.57
2022-12-04T18:39:01.763Z,9.85
2022-12-04T18:41:29.599Z,15.90
2022-12-04T18:44:03.039Z,9.52
2022-12-04T18:46:30.261Z,8.05
2022-12-04T18:49:01.181Z,8.80
2022-12-04T18:51:35.561Z,8.95
2022-12-04T18:54:05.030Z,9.00
2022-12-04T18:56:34.763Z,8.70
2022-12-04T18:59:27.024Z,9.82
2022-12-04T19:01:54.230Z,9.38
2022-12-04T19:04:23.568Z,8.85
2022-12-04T19:07:02.648Z,8.45
2022-12-04T19:10:08.865Z,9.68
2022-12-04T19:12:18.947Z,9.10
2022-12-04T19:14:50.161Z,8.95
2022-12-04T19:17:20.923Z,8.80
2022-12-04T19:19:48.569Z,9.68
2022-12-04T19:22:15.368Z,9.25
2022-12-04T19:24:42.653Z,8.90
2022-12-04T19:27:14.551Z,9.52
2022-12-04T19:29:43.305Z,9.10
2022-12-04T19:32:12.048Z,9.13
2022-12-04T19:34:42.935Z,9.35
2022-12-04T19:37:09.532Z,9.30
2022-12-04T19:39:36.520Z,8.77
2022-12-04T19:42:05.491Z,8.80
2022-12-04T19:44:49.063Z,8.95
2022-12-04T19:47:18.559Z,10.35
2022-12-04T19:49:46.590Z,9.00
2022-12-04T19:52:13.227Z,9.80
2022-12-04T19:54:40.167Z,9.25
2022-12-04T19:57:06.685Z,8.38
2022-12-04T19:59:37.666Z,9.18
2022-12-04T20:02:06.377Z,8.80
2022-12-04T20:04:40.206Z,8.45
2022-12-04T20:07:20.481Z,9.07
2022-12-04T20:09:52.083Z,8.65
2022-12-04T20:12:20.990Z,9.07
2022-12-04T20:14:47.703Z,10.32
2022-12-04T20:17:14.484Z,9.13
2022-12-04T20:19:44.170Z,9.15
2022-12-04T20:22:10.873Z,9.80
2022-12-04T20:24:40.451Z,8.82
2022-12-04T20:27:10.921Z,9.77
2022-12-04T20:29:37.637Z,9.10
2022-12-04T20:32:04.458Z,10.35
2022-12-04T20:34:31.937Z,10.80
2022-12-04T20:37:02.627Z,10.18
2022-12-04T20:39:29.692Z,9.60
2022-12-04T20:41:56.291Z,9.57
2022-12-04T20:44:22.817Z,9.73
2022-12-04T20:46:49.804Z,9.25
2022-12-04T20:49:22.055Z,9.32
2022-12-04T20:51:51.147Z,10.40
2022-12-04T20:54:19.578Z,10.18
2022-12-04T20:56:53.405Z,10.60
2022-12-04T20:59:21.813Z,9.75
2022-12-04T21:01:49.418Z,10.48
2022-12-04T21:04:17.796Z,9.48
2022-12-04T21:06:46.591Z,9.77
2022-12-04T21:09:24.583Z,10.70
2022-12-04T21:11:55.517Z,10.20
2022-12-04T21:14:43.521Z,10.02
2022-12-04T21:17:16.595Z,10.27
2022-12-04T21:19:49.369Z,10.55
2022-12-04T21:22:17.302Z,10.60
2022-12-04T21:24:43.829Z,10.60
2022-12-04T21:27:13.353Z,9.77
2022-12-04T21:29:43.844Z,10.27
2022-12-04T21:32:10.348Z,9.43
2022-12-04T21:34:37.062Z,10.88
2022-12-04T21:37:03.662Z,10.27
2022-12-04T21:39:57.289Z,10.00
2022-12-04T21:42:32.814Z,10.00
2022-12-04T21:45:00.506Z,9.63
2022-12-04T21:47:27.637Z,9.65
2022-12-04T21:49:54.624Z,11.65
2022-12-04T21:52:22.164Z,10.60
2022-12-04T21:54:51.654Z,9.10
2022-12-04T21:57:19.198Z,10.77
2022-12-04T21:59:45.686Z,9.70
2022-12-04T22:02:13.609Z,9.52
2022-12-04T22:04:41.014Z,10.27
2022-12-04T22:07:07.580Z,10.52
2022-12-04T22:09:34.514Z,10.90
2022-12-04T22:12:20.254Z,9.85
2022-12-04T22:14:51.184Z,9.98
2022-12-04T22:17:35.190Z,9.20
2022-12-04T22:20:01.779Z,9.38
2022-12-04T22:22:28.254Z,9.60
2022-12-04T22:24:54.722Z,9.55
2022-12-04T22:27:38.671Z,9.38
2022-12-04T22:30:06.207Z,9.80
2022-12-04T22:32:32.719Z,9.57
2022-12-04T22:34:59.181Z,8.95
2022-12-04T22:37:25.759Z,9.65
2022-12-04T22:39:52.323Z,9.70
2022-12-04T22:42:18.772Z,9.05
2022-12-04T22:44:45.354Z,8.98
2022-12-04T22:47:11.878Z,9.82
2022-12-04T22:49:38.481Z,8.73
2022-12-04T22:52:05.034Z,10.20
2022-12-04T22:54:31.515Z,8.65
2022-12-04T22:56:58.046Z,8.77
2022-12-04T22:59:24.547Z,10.18
